createdAt,value
2018-01-23T00:02:07.894Z,5.37
2018-01-23T00:04:35.426Z,5.53
2018-01-23T00:07:02.978Z,5.50
2018-01-23T00:09:49.948Z,5.00
2018-01-23T00:12:18.880Z,5.00
2018-01-23T00:14:46.420Z,5.20
2018-01-23T00:17:13.967Z,5.27
2018-01-23T00:19:41.497Z,4.43
2018-01-23T00:22:09.067Z,5.40
2018-01-23T00:24:36.737Z,4.90
2018-01-23T00:27:05.062Z,4.57
2018-01-23T00:29:44.091Z,4.37
2018-01-23T00:32:11.651Z,4.97
2018-01-23T00:34:39.995Z,5.27
2018-01-23T00:37:08.351Z,4.87
2018-01-23T00:39:44.551Z,4.73
2018-01-23T00:42:12.900Z,5.10
2018-01-23T00:44:41.060Z,4.57
2018-01-23T00:47:08.667Z,4.30
2018-01-23T00:49:37.056Z,4.13
2018-01-23T00:52:04.664Z,4.77
2018-01-23T00:54:32.286Z,4.77
2018-01-23T00:56:59.840Z,4.40
2018-01-23T00:59:34.190Z,5.00
2018-01-23T01:02:01.754Z,4.70
2018-01-23T01:04:29.309Z,4.43
2018-01-23T01:06:57.416Z,4.13
2018-01-23T01:09:26.021Z,4.57
2018-01-23T01:11:53.615Z,4.20
2018-01-23T01:14:21.219Z,4.13
2018-01-23T01:16:48.769Z,3.80
2018-01-23T01:22:09.388Z,3.90
2018-01-23T01:24:37.076Z,3.53
2018-01-23T01:27:04.690Z,3.90
2018-01-23T01:29:40.144Z,3.93
2018-01-23T01:32:07.708Z,3.73
2018-01-23T01:34:35.246Z,4.20
2018-01-23T01:37:03.602Z,3.77
2018-01-23T01:39:32.152Z,4.33
2018-01-23T01:41:59.712Z,3.47
2018-01-23T01:44:27.884Z,3.53
2018-01-23T01:46:55.526Z,3.87
2018-01-23T01:49:25.083Z,4.20
2018-01-23T01:51:52.651Z,4.33
2018-01-23T01:54:20.227Z,3.80
2018-01-23T01:56:47.795Z,4.37
2018-01-23T01:59:17.165Z,3.53
2018-01-23T02:01:44.725Z,4.07
2018-01-23T02:04:12.288Z,4.20
2018-01-23T02:06:39.917Z,4.83
2018-01-23T02:09:07.476Z,3.83
2018-01-23T02:11:35.022Z,3.87
2018-01-23T02:14:03.476Z,4.07
2018-01-23T02:16:31.889Z,4.10
2018-01-23T02:19:01.416Z,3.90
2018-01-23T02:21:29.632Z,3.77
2018-01-23T02:23:57.180Z,4.17
2018-01-23T02:26:24.774Z,4.00
2018-01-23T02:28:59.304Z,4.83
2018-01-23T02:31:27.621Z,4.00
2018-01-23T02:33:58.103Z,4.20
2018-01-23T02:36:27.289Z,3.80
2018-01-23T02:38:55.667Z,4.07
2018-01-23T02:41:23.239Z,3.53
2018-01-23T02:43:50.821Z,3.77
2018-01-23T02:46:19.176Z,3.60
2018-01-23T02:48:46.771Z,3.27
2018-01-23T02:51:15.640Z,3.70
2018-01-23T02:53:43.208Z,3.53
2018-01-23T02:56:10.796Z,3.33
2018-01-23T02:58:40.204Z,3.77
2018-01-23T03:01:07.758Z,3.83
2018-01-23T03:03:36.092Z,3.27
2018-01-23T03:06:03.692Z,3.50
2018-01-23T03:08:33.996Z,2.87
2018-01-23T03:11:01.545Z,2.90
2018-01-23T03:13:29.126Z,2.90
2018-01-23T03:15:56.743Z,3.33
2018-01-23T03:18:35.087Z,3.27
2018-01-23T03:21:03.575Z,3.00
2018-01-23T03:23:31.131Z,3.20
2018-01-23T03:25:58.702Z,3.03
2018-01-23T03:28:26.372Z,3.30
2018-01-23T03:30:55.222Z,2.60
2018-01-23T03:33:22.822Z,2.90
2018-01-23T03:35:50.384Z,3.30
2018-01-23T03:38:20.002Z,2.80
2018-01-23T03:40:47.558Z,3.00
2018-01-23T03:43:15.166Z,2.97
2018-01-23T03:45:42.738Z,2.90
2018-01-23T03:48:10.286Z,2.83
2018-01-23T03:50:37.854Z,2.93
2018-01-23T03:53:05.423Z,3.20
2018-01-23T03:55:33.011Z,2.70
2018-01-23T03:58:01.603Z,3.00
2018-01-23T04:00:29.162Z,3.00
2018-01-23T04:02:56.731Z,2.90
2018-01-23T04:05:24.271Z,3.33
2018-01-23T04:07:51.840Z,2.87
2018-01-23T04:10:19.431Z,2.80
2018-01-23T04:12:46.995Z,2.80
2018-01-23T04:15:15.328Z,2.70
2018-01-23T04:17:46.242Z,2.70
2018-01-23T04:20:13.795Z,2.70
2018-01-23T04:22:41.354Z,2.90
2018-01-23T04:25:09.712Z,2.57
2018-01-23T04:27:37.269Z,2.70
2018-01-23T04:30:04.852Z,2.90
2018-01-23T04:32:33.154Z,2.90
2018-01-23T04:35:00.803Z,3.10
2018-01-23T04:37:29.131Z,3.30
2018-01-23T04:39:56.689Z,2.50
2018-01-23T04:42:24.299Z,2.80
2018-01-23T04:44:52.625Z,3.30
2018-01-23T04:47:20.185Z,3.00
2018-01-23T04:49:47.773Z,3.00
2018-01-23T04:52:15.331Z,2.73
2018-01-23T04:54:42.904Z,3.20
2018-01-23T04:57:10.496Z,2.80
2018-01-23T04:59:42.018Z,3.50
2018-01-23T05:02:09.576Z,3.50
2018-01-23T05:04:37.168Z,4.30
2018-01-23T05:07:06.808Z,4.00
2018-01-23T05:09:39.396Z,3.80
2018-01-23T05:12:07.697Z,4.47
2018-01-23T05:14:35.258Z,4.67
2018-01-23T05:17:02.817Z,5.40
2018-01-23T05:19:32.319Z,6.33
2018-01-23T05:22:00.843Z,6.60
2018-01-23T05:24:29.181Z,6.63
2018-01-23T05:26:56.764Z,6.57
2018-01-23T05:29:25.151Z,7.37
2018-01-23T05:31:52.735Z,7.20
2018-01-23T05:34:21.046Z,7.20
2018-01-23T05:36:48.628Z,8.13
2018-01-23T05:39:17.332Z,7.17
2018-01-23T05:41:44.878Z,8.23
2018-01-23T05:44:12.450Z,8.60
2018-01-23T05:46:40.088Z,8.97
2018-01-23T05:49:07.654Z,9.00
2018-01-23T05:51:35.221Z,8.77
2018-01-23T05:54:02.809Z,8.63
2018-01-23T05:56:30.362Z,9.57
2018-01-23T05:58:58.959Z,9.13
2018-01-23T06:01:26.537Z,9.33
2018-01-23T06:03:54.130Z,9.23
2018-01-23T06:06:21.699Z,9.83
2018-01-23T06:08:59.996Z,9.27
2018-01-23T06:11:28.346Z,9.27
2018-01-23T06:13:55.927Z,10.50
2018-01-23T06:16:23.494Z,10.73
2018-01-23T06:19:01.773Z,10.03
2018-01-23T06:21:30.128Z,10.77
2018-01-23T06:23:57.694Z,10.37
2018-01-23T06:26:27.682Z,10.37
2018-01-23T06:28:55.278Z,10.47
2018-01-23T06:31:22.830Z,11.63
2018-01-23T06:33:51.132Z,11.50
2018-01-23T06:36:18.687Z,10.43
2018-01-23T06:38:49.371Z,10.57
2018-01-23T06:41:18.113Z,11.47
2018-01-23T06:43:45.711Z,10.60
2018-01-23T06:46:14.103Z,11.50
2018-01-23T06:48:52.975Z,11.57
2018-01-23T06:51:21.227Z,11.23
2018-01-23T06:53:48.783Z,10.60
2018-01-23T06:56:17.637Z,11.47
2018-01-23T06:58:46.066Z,10.43
2018-01-23T07:01:14.088Z,10.63
2018-01-23T07:03:41.715Z,11.37
2018-01-23T07:06:09.318Z,10.07
2018-01-23T07:08:37.806Z,9.93
2018-01-23T07:11:06.301Z,10.20
2018-01-23T07:13:35.964Z,9.83
2018-01-23T07:16:03.528Z,9.87
2018-01-23T07:18:33.054Z,9.50
2018-01-23T07:21:00.624Z,9.80
2018-01-23T07:23:28.169Z,9.47
2018-01-23T07:25:55.715Z,9.63
2018-01-23T07:28:23.309Z,9.40
2018-01-23T07:30:50.861Z,9.00
2018-01-23T07:33:18.425Z,8.90
2018-01-23T07:35:47.341Z,8.93
2018-01-23T07:38:15.661Z,8.80
2018-01-23T07:40:43.207Z,8.27
2018-01-23T07:43:10.811Z,8.57
2018-01-23T07:45:38.356Z,7.80
2018-01-23T07:48:06.003Z,8.10
2018-01-23T07:50:33.574Z,7.13
2018-01-23T07:53:01.196Z,7.37
2018-01-23T07:55:29.560Z,7.60
2018-01-23T07:57:58.263Z,7.80
2018-01-23T08:00:25.874Z,7.13
2018-01-23T08:02:53.414Z,7.13
2018-01-23T08:05:21.009Z,7.47
2018-01-23T08:07:48.579Z,7.20
2018-01-23T08:10:16.127Z,6.93
2018-01-23T08:12:43.737Z,6.70
2018-01-23T08:15:12.067Z,6.93
2018-01-23T08:17:45.627Z,6.80
2018-01-23T08:20:13.965Z,6.40
2018-01-23T08:22:41.578Z,5.70
2018-01-23T08:25:09.120Z,6.23
2018-01-23T08:27:59.397Z,6.10
2018-01-23T08:30:26.928Z,6.13
2018-01-23T08:32:54.489Z,6.17
2018-01-23T08:35:22.038Z,5.50
2018-01-23T08:37:53.270Z,6.10
2018-01-23T08:40:20.866Z,5.70
2018-01-23T08:42:48.424Z,6.27
2018-01-23T08:45:16.014Z,5.80
2018-01-23T08:47:45.617Z,5.77
2018-01-23T08:50:13.168Z,5.97
2018-01-23T08:52:40.759Z,5.63
2018-01-23T08:55:08.315Z,5.93
2018-01-23T08:57:43.407Z,5.53
2018-01-23T09:00:11.635Z,5.97
2018-01-23T09:02:39.982Z,5.80
2018-01-23T09:05:08.300Z,6.00
2018-01-23T09:07:38.565Z,5.87
2018-01-23T09:10:07.050Z,5.53
2018-01-23T09:12:34.678Z,8.30
2018-01-23T09:15:03.585Z,5.87
2018-01-23T09:17:31.170Z,6.27
2018-01-23T09:19:58.712Z,5.73
2018-01-23T09:22:26.330Z,6.60
2018-01-23T09:24:54.008Z,6.10
2018-01-23T09:27:21.562Z,6.27
2018-01-23T09:30:00.531Z,6.20
2018-01-23T09:32:28.109Z,6.17
2018-01-23T09:34:55.685Z,6.43
2018-01-23T09:37:23.260Z,6.47
2018-01-23T09:39:51.473Z,6.07
2018-01-23T09:42:19.814Z,6.53
2018-01-23T09:44:47.880Z,6.03
2018-01-23T09:47:15.935Z,6.20
2018-01-23T09:49:43.973Z,5.87
2018-01-23T09:52:12.888Z,6.20
2018-01-23T09:54:40.435Z,6.60
2018-01-23T09:57:07.981Z,6.03
2018-01-23T09:59:37.376Z,6.17
2018-01-23T10:02:04.946Z,5.47
2018-01-23T10:04:32.516Z,6.37
2018-01-23T10:07:00.886Z,5.70
2018-01-23T10:09:47.598Z,5.90
2018-01-23T10:12:15.228Z,6.07
2018-01-23T10:14:42.778Z,5.83
2018-01-23T10:17:10.368Z,6.00
2018-01-23T10:19:37.954Z,6.30
2018-01-23T10:22:06.862Z,5.60
2018-01-23T10:24:34.443Z,6.13
2018-01-23T10:27:02.017Z,5.70
2018-01-23T10:29:35.277Z,5.77
2018-01-23T10:32:03.613Z,5.73
2018-01-23T10:34:31.164Z,6.17
2018-01-23T10:36:58.719Z,5.73
2018-01-23T10:39:29.423Z,4.93
2018-01-23T10:41:57.005Z,5.43
2018-01-23T10:44:24.633Z,5.53
2018-01-23T10:46:52.998Z,5.20
2018-01-23T10:49:21.356Z,5.10
2018-01-23T10:51:48.918Z,4.50
2018-01-23T10:54:17.068Z,4.70
2018-01-23T10:56:44.636Z,4.80
2018-01-23T10:59:12.974Z,4.50
2018-01-23T11:01:41.334Z,5.10
2018-01-23T11:04:12.920Z,4.43
2018-01-23T11:06:41.262Z,5.37
2018-01-23T11:09:08.835Z,4.77
2018-01-23T11:11:36.381Z,5.27
2018-01-23T11:14:04.069Z,4.50
2018-01-23T11:16:32.707Z,4.70
2018-01-23T11:19:07.399Z,5.03
2018-01-23T11:21:35.741Z,4.53
2018-01-23T11:24:03.348Z,4.97
2018-01-23T11:26:31.475Z,4.73
2018-01-23T11:29:00.629Z,5.40
2018-01-23T11:31:29.729Z,4.60
2018-01-23T11:33:58.034Z,4.80
2018-01-23T11:36:25.692Z,4.93
2018-01-23T11:38:54.274Z,4.80
2018-01-23T11:41:21.832Z,4.83
2018-01-23T11:43:49.408Z,4.70
2018-01-23T11:46:17.143Z,4.90
2018-01-23T11:48:46.754Z,4.63
2018-01-23T11:51:14.344Z,4.80
2018-01-23T11:53:41.926Z,4.63
2018-01-23T11:56:10.224Z,4.70
2018-01-23T11:58:37.771Z,4.50
2018-01-23T12:01:06.409Z,4.70
2018-01-23T12:03:33.967Z,4.20
2018-01-23T12:06:01.521Z,5.57
2018-01-23T12:08:48.495Z,4.47
2018-01-23T12:11:16.101Z,4.30
2018-01-23T12:13:43.665Z,4.87
2018-01-23T12:16:11.242Z,4.30
2018-01-23T12:18:43.204Z,4.50
2018-01-23T12:21:10.820Z,4.73
2018-01-23T12:23:38.388Z,4.20
2018-01-23T12:26:05.928Z,3.67
2018-01-23T12:28:38.918Z,3.57
2018-01-23T12:31:06.480Z,4.00
2018-01-23T12:33:34.524Z,3.37
2018-01-23T12:36:02.120Z,3.93
2018-01-23T12:38:34.821Z,3.70
2018-01-23T12:41:02.365Z,3.40
2018-01-23T12:43:29.897Z,3.30
2018-01-23T12:45:57.461Z,3.67
2018-01-23T12:48:25.071Z,3.40
2018-01-23T12:50:52.651Z,3.07
2018-01-23T12:53:20.722Z,2.87
2018-01-23T12:55:49.085Z,3.33
2018-01-23T12:58:17.372Z,2.80
2018-01-23T13:00:45.755Z,2.90
2018-01-23T13:03:14.080Z,2.60
2018-01-23T13:05:41.679Z,2.97
2018-01-23T13:08:10.164Z,2.40
2018-01-23T13:10:37.792Z,2.43
2018-01-23T13:13:05.358Z,2.70
2018-01-23T13:15:32.904Z,2.80
2018-01-23T13:18:01.243Z,3.30
2018-01-23T13:20:30.077Z,3.17
2018-01-23T13:22:57.656Z,3.07
2018-01-23T13:25:25.370Z,3.47
2018-01-23T13:27:55.639Z,2.73
2018-01-23T13:30:23.205Z,2.80
2018-01-23T13:32:50.827Z,2.53
2018-01-23T13:35:18.411Z,3.17
2018-01-23T13:37:47.007Z,2.97
2018-01-23T13:40:14.625Z,3.10
2018-01-23T13:42:42.999Z,3.27
2018-01-23T13:45:11.324Z,3.10
2018-01-23T13:47:38.888Z,2.73
2018-01-23T13:50:06.496Z,2.63
2018-01-23T13:52:34.052Z,3.00
2018-01-23T13:55:02.392Z,2.87
2018-01-23T13:57:29.994Z,3.07
2018-01-23T13:59:57.550Z,3.07
2018-01-23T14:02:25.151Z,2.80
2018-01-23T14:04:52.716Z,3.53
2018-01-23T14:07:21.410Z,3.40
2018-01-23T14:12:49.707Z,3.30
2018-01-23T14:15:17.317Z,3.60
2018-01-23T14:17:49.959Z,3.53
2018-01-23T14:20:18.837Z,3.40
2018-01-23T14:22:47.139Z,4.03
2018-01-23T14:25:14.703Z,3.90
2018-01-23T14:27:44.326Z,3.63
2018-01-23T14:30:11.920Z,4.37
2018-01-23T14:32:40.250Z,3.77
2018-01-23T14:35:08.048Z,4.10
2018-01-23T14:37:35.656Z,3.60
2018-01-23T14:40:04.044Z,3.53
2018-01-23T14:42:31.844Z,3.30
2018-01-23T14:44:59.725Z,3.63
2018-01-23T14:47:27.340Z,3.63
2018-01-23T14:49:55.645Z,4.03
2018-01-23T14:52:23.216Z,4.00
2018-01-23T14:54:50.899Z,3.17
2018-01-23T14:57:18.507Z,3.40
2018-01-23T14:59:46.357Z,3.40
2018-01-23T15:02:14.940Z,3.30
2018-01-23T15:04:43.117Z,3.30
2018-01-23T15:09:50.275Z,2.70
2018-01-23T15:12:19.483Z,2.73
2018-01-23T15:14:47.637Z,3.10
2018-01-23T15:17:15.408Z,2.80
2018-01-23T15:19:58.086Z,2.67
2018-01-23T15:22:26.496Z,3.53
2018-01-23T15:24:54.055Z,2.53
2018-01-23T15:27:21.609Z,3.00
2018-01-23T15:29:52.720Z,2.90
2018-01-23T15:32:20.361Z,2.90
2018-01-23T15:34:47.923Z,3.10
2018-01-23T15:37:16.451Z,2.90
2018-01-23T15:39:44.812Z,2.83
2018-01-23T15:42:13.087Z,2.77
2018-01-23T15:44:40.633Z,3.00
2018-01-23T15:47:09.074Z,2.90
2018-01-23T15:49:36.846Z,2.73
2018-01-23T15:52:04.423Z,2.43
2018-01-23T15:54:54.206Z,2.67
2018-01-23T15:57:22.216Z,3.20
2018-01-23T15:59:49.785Z,2.63
2018-01-23T16:02:17.386Z,2.73
2018-01-23T16:04:45.344Z,4.97
2018-01-23T16:07:13.664Z,3.40
2018-01-23T16:09:42.298Z,3.97
2018-01-23T16:12:10.647Z,4.07
2018-01-23T16:14:38.209Z,3.07
2018-01-23T16:17:05.859Z,2.87
2018-01-23T16:19:39.623Z,3.30
2018-01-23T16:22:07.224Z,3.27
2018-01-23T16:24:34.884Z,3.13
2018-01-23T16:27:02.450Z,2.80
2018-01-23T16:29:37.980Z,3.53
2018-01-23T16:32:05.654Z,3.17
2018-01-23T16:34:33.211Z,2.80
2018-01-23T16:37:00.818Z,2.93
2018-01-23T16:39:35.484Z,3.30
2018-01-23T16:42:03.130Z,2.93
2018-01-23T16:44:30.698Z,3.00
2018-01-23T16:46:59.072Z,3.10
2018-01-23T16:49:39.741Z,3.13
2018-01-23T16:52:07.444Z,3.60
2018-01-23T16:54:35.015Z,3.20
2018-01-23T16:57:02.610Z,3.67
2018-01-23T16:59:49.755Z,3.50
2018-01-23T17:02:18.123Z,3.40
2018-01-23T17:04:46.551Z,3.17
2018-01-23T17:07:14.158Z,4.10
2018-01-23T17:09:49.555Z,3.90
2018-01-23T17:12:17.298Z,4.00
2018-01-23T17:14:49.029Z,4.07
2018-01-23T17:17:16.720Z,3.83
2018-01-23T17:19:44.408Z,4.23
2018-01-23T17:22:12.182Z,4.30
2018-01-23T17:24:40.578Z,3.60
2018-01-23T17:27:08.796Z,4.47
2018-01-23T17:29:46.716Z,4.47
2018-01-23T17:32:15.526Z,3.87
2018-01-23T17:34:47.129Z,3.97
2018-01-23T17:37:17.232Z,4.30
2018-01-23T17:39:44.834Z,4.70
2018-01-23T17:42:13.252Z,4.63
2018-01-23T17:44:40.854Z,4.40
2018-01-23T17:47:08.419Z,4.33
2018-01-23T17:49:36.050Z,4.43
2018-01-23T17:52:03.669Z,4.53
2018-01-23T17:54:32.939Z,4.83
2018-01-23T17:57:00.536Z,4.67
2018-01-23T17:59:30.100Z,5.33
2018-01-23T18:01:58.529Z,4.93
2018-01-23T18:04:26.267Z,5.13
2018-01-23T18:06:53.964Z,5.43
2018-01-23T18:09:23.744Z,5.37
2018-01-23T18:11:51.576Z,4.73
2018-01-23T18:14:19.191Z,5.43
2018-01-23T18:16:47.641Z,5.90
2018-01-23T18:19:16.316Z,6.20
2018-01-23T18:21:44.176Z,5.57
2018-01-23T18:24:12.220Z,6.03
2018-01-23T18:26:39.887Z,5.53
2018-01-23T18:29:10.679Z,5.73
2018-01-23T18:31:38.343Z,5.90
2018-01-23T18:34:06.049Z,5.60
2018-01-23T18:36:34.421Z,5.90
2018-01-23T18:39:02.068Z,5.90
2018-01-23T18:41:29.702Z,5.80
2018-01-23T18:43:57.300Z,6.00
2018-01-23T18:46:25.053Z,6.30
2018-01-23T18:48:52.727Z,6.50
2018-01-23T18:51:21.062Z,6.60
2018-01-23T18:53:49.042Z,6.70
2018-01-23T18:56:16.684Z,7.23
2018-01-23T18:58:44.278Z,8.03
2018-01-23T19:01:11.941Z,7.10
2018-01-23T19:03:41.876Z,8.37
2018-01-23T19:06:09.524Z,8.83
2018-01-23T19:08:38.166Z,9.30
2018-01-23T19:11:06.722Z,9.20
2018-01-23T19:13:35.254Z,9.33
2018-01-23T19:16:03.331Z,9.60
2018-01-23T19:18:40.717Z,9.20
2018-01-23T19:21:08.350Z,9.93
2018-01-23T19:23:35.936Z,10.53
2018-01-23T19:26:03.565Z,9.90
2018-01-23T19:28:37.651Z,10.77
2018-01-23T19:31:05.439Z,10.67
2018-01-23T19:33:33.075Z,10.80
2018-01-23T19:36:00.810Z,10.77
2018-01-23T19:38:29.851Z,11.03
2018-01-23T19:40:57.530Z,10.87
2018-01-23T19:43:28.243Z,12.07
2018-01-23T19:45:56.144Z,11.83
2018-01-23T19:48:24.326Z,11.43
2018-01-23T19:50:51.958Z,11.20
2018-01-23T19:53:21.876Z,11.67
2018-01-23T19:55:49.850Z,11.97
2018-01-23T19:58:17.622Z,12.23
2018-01-23T20:00:45.231Z,12.30
2018-01-23T20:03:13.918Z,12.27
2018-01-23T20:05:41.578Z,12.37
2018-01-23T20:08:14.434Z,12.20
2018-01-23T20:10:43.731Z,12.77
2018-01-23T20:13:11.351Z,13.33
2018-01-23T20:15:40.087Z,12.70
2018-01-23T20:18:09.871Z,11.77
2018-01-23T20:20:37.870Z,12.37
2018-01-23T20:23:06.723Z,12.03
2018-01-23T20:25:34.439Z,12.60
2018-01-23T20:28:03.080Z,12.23
2018-01-23T20:30:31.108Z,12.40
2018-01-23T20:32:59.596Z,11.27
2018-01-23T20:35:27.248Z,11.70
2018-01-23T20:37:57.670Z,12.17
2018-01-23T20:40:25.340Z,11.97
2018-01-23T20:42:54.823Z,12.07
2018-01-23T20:45:22.749Z,12.43
2018-01-23T20:47:50.365Z,11.93
2018-01-23T20:50:18.025Z,12.57
2018-01-23T20:52:46.323Z,12.30
2018-01-23T20:55:13.962Z,12.87
2018-01-23T20:57:41.598Z,12.60
2018-01-23T21:00:09.995Z,12.00
2018-01-23T21:02:37.670Z,12.40
2018-01-23T21:05:05.310Z,12.47
2018-01-23T21:07:33.705Z,11.97
2018-01-23T21:10:04.738Z,12.53
2018-01-23T21:12:40.257Z,11.50
2018-01-23T21:15:07.910Z,12.10
2018-01-23T21:17:36.024Z,11.70
2018-01-23T21:20:03.838Z,11.80
2018-01-23T21:22:31.738Z,11.60
2018-01-23T21:24:59.523Z,11.53
2018-01-23T21:27:27.223Z,11.90
2018-01-23T21:29:55.665Z,11.80
2018-01-23T21:32:23.625Z,11.73
2018-01-23T21:34:51.311Z,11.50
2018-01-23T21:37:22.669Z,12.10
2018-01-23T21:39:50.448Z,11.97
2018-01-23T21:42:19.232Z,13.33
2018-01-23T21:44:46.891Z,13.10
2018-01-23T21:47:15.604Z,13.23
2018-01-23T21:49:44.060Z,13.33
2018-01-23T21:52:11.728Z,13.87
2018-01-23T21:54:39.780Z,13.50
2018-01-23T21:57:07.414Z,14.30
2018-01-23T21:59:35.190Z,14.13
2018-01-23T22:02:03.254Z,14.37
2018-01-23T22:04:31.140Z,13.97
2018-01-23T22:06:58.852Z,13.83
2018-01-23T22:09:26.477Z,14.07
2018-01-23T22:11:54.166Z,12.93
2018-01-23T22:14:21.965Z,14.70
2018-01-23T22:16:50.119Z,14.07
2018-01-23T22:19:17.783Z,13.60
2018-01-23T22:21:46.223Z,13.63
2018-01-23T22:24:13.800Z,13.17
2018-01-23T22:26:41.434Z,12.93
2018-01-23T22:29:09.953Z,12.37
2018-01-23T22:31:37.578Z,12.57
2018-01-23T22:34:05.674Z,12.90
2018-01-23T22:36:34.264Z,12.60
2018-01-23T22:39:01.829Z,12.00
2018-01-23T22:41:29.474Z,11.27
2018-01-23T22:43:57.058Z,11.97
2018-01-23T22:46:24.639Z,11.67
2018-01-23T22:48:52.226Z,12.37
2018-01-23T22:51:20.161Z,11.93
2018-01-23T22:53:48.405Z,12.20
2018-01-23T22:56:15.982Z,11.87
2018-01-23T22:58:44.337Z,12.43
2018-01-23T23:01:12.008Z,12.20
2018-01-23T23:03:39.587Z,12.37
2018-01-23T23:06:07.203Z,11.60
2018-01-23T23:08:36.789Z,12.40
2018-01-23T23:11:05.143Z,12.90
2018-01-23T23:13:32.755Z,12.53
2018-01-23T23:16:01.174Z,11.60
2018-01-23T23:18:31.715Z,11.63
2018-01-23T23:20:59.416Z,11.37
2018-01-23T23:23:26.998Z,11.90
2018-01-23T23:25:55.329Z,11.43
2018-01-23T23:28:26.576Z,11.77
2018-01-23T23:30:54.747Z,11.50
2018-01-23T23:33:22.339Z,11.23
2018-01-23T23:35:49.920Z,12.47
2018-01-23T23:38:19.509Z,12.23
2018-01-23T23:40:47.081Z,12.60
2018-01-23T23:43:14.677Z,12.23
2018-01-23T23:45:42.237Z,12.93
2018-01-23T23:48:14.665Z,12.80
2018-01-23T23:50:42.247Z,13.07
2018-01-23T23:53:09.835Z,13.37
2018-01-23T23:55:37.439Z,12.87
2018-01-23T23:58:06.056Z,14.33
